sensor_id;sensor_type;location;lat;lon;timestamp;pressure;altitude;pressure_sealevel;temperature;humidity
48652;BME280;34442;52.362;-1.302;2023-05-22T00:01:14;100860.97;;;14.01;60.22
48652;BME280;34442;52.362;-1.302;2023-05-22T00:03:44;100868.50;;;13.93;60.19
48652;BME280;34442;52.362;-1.302;2023-05-22T00:06:12;100854.31;;;14.04;60.41
48652;BME280;34442;52.362;-1.302;2023-05-22T00:08:39;100853.09;;;13.93;60.69
48652;BME280;34442;52.362;-1.302;2023-05-22T00:11:04;100852.25;;;13.99;60.60
48652;BME280;34442;52.362;-1.302;2023-05-22T00:13:30;100847.44;;;14.01;61.07
48652;BME280;34442;52.362;-1.302;2023-05-22T00:15:55;100849.41;;;13.87;61.49
48652;BME280;34442;52.362;-1.302;2023-05-22T00:18:21;100846.25;;;13.90;62.02
48652;BME280;34442;52.362;-1.302;2023-05-22T00:20:47;100855.81;;;13.93;61.91
48652;BME280;34442;52.362;-1.302;2023-05-22T00:23:13;100849.84;;;13.84;62.38
48652;BME280;34442;52.362;-1.302;2023-05-22T00:25:39;100855.00;;;13.93;62.28
48652;BME280;34442;52.362;-1.302;2023-05-22T00:28:04;100843.75;;;13.96;62.36
48652;BME280;34442;52.362;-1.302;2023-05-22T00:30:30;100844.41;;;13.91;62.75
48652;BME280;34442;52.362;-1.302;2023-05-22T00:32:56;100839.00;;;13.91;63.17
48652;BME280;34442;52.362;-1.302;2023-05-22T00:35:22;100836.91;;;13.86;63.07
48652;BME280;34442;52.362;-1.302;2023-05-22T00:37:47;100825.47;;;13.91;63.34
48652;BME280;34442;52.362;-1.302;2023-05-22T00:40:13;100829.44;;;13.88;63.29
48652;BME280;34442;52.362;-1.302;2023-05-22T00:42:42;100837.31;;;13.90;63.48
48652;BME280;34442;52.362;-1.302;2023-05-22T00:45:10;100838.41;;;13.82;63.36
48652;BME280;34442;52.362;-1.302;2023-05-22T00:47:35;100835.44;;;13.90;64.04
48652;BME280;34442;52.362;-1.302;2023-05-22T00:50:02;100830.00;;;13.97;64.04
48652;BME280;34442;52.362;-1.302;2023-05-22T00:52:29;100831.72;;;13.92;64.23
48652;BME280;34442;52.362;-1.302;2023-05-22T00:54:54;100829.78;;;13.99;64.58
48652;BME280;34442;52.362;-1.302;2023-05-22T00:57:22;100830.66;;;13.93;65.23
48652;BME280;34442;52.362;-1.302;2023-05-22T00:59:49;100832.47;;;13.99;65.26
48652;BME280;34442;52.362;-1.302;2023-05-22T01:02:15;100840.16;;;14.02;65.12
48652;BME280;34442;52.362;-1.302;2023-05-22T01:04:50;100840.97;;;14.02;66.84
48652;BME280;34442;52.362;-1.302;2023-05-22T01:07:15;100841.63;;;14.04;65.71
48652;BME280;34442;52.362;-1.302;2023-05-22T01:09:42;100846.19;;;14.04;66.03
48652;BME280;34442;52.362;-1.302;2023-05-22T01:12:41;100837.25;;;14.03;68.61
48652;BME280;34442;52.362;-1.302;2023-05-22T01:18:10;100839.06;;;14.09;69.54
48652;BME280;34442;52.362;-1.302;2023-05-22T01:20:44;100834.72;;;14.08;67.30
48652;BME280;34442;52.362;-1.302;2023-05-22T01:23:30;100834.72;;;14.08;67.53
48652;BME280;34442;52.362;-1.302;2023-05-22T01:31:44;100823.75;;;14.03;67.89
48652;BME280;34442;52.362;-1.302;2023-05-22T01:34:11;100821.22;;;14.02;68.05
48652;BME280;34442;52.362;-1.302;2023-05-22T01:36:38;100816.25;;;13.99;68.25
48652;BME280;34442;52.362;-1.302;2023-05-22T01:39:06;100820.41;;;14.01;68.14
48652;BME280;34442;52.362;-1.302;2023-05-22T01:41:35;100822.88;;;14.03;68.31
48652;BME280;34442;52.362;-1.302;2023-05-22T01:44:01;100815.00;;;14.01;68.58
48652;BME280;34442;52.362;-1.302;2023-05-22T01:46:27;100814.88;;;13.89;68.55
48652;BME280;34442;52.362;-1.302;2023-05-22T01:48:53;100813.63;;;13.92;68.80
48652;BME280;34442;52.362;-1.302;2023-05-22T01:51:36;100811.97;;;13.91;70.51
48652;BME280;34442;52.362;-1.302;2023-05-22T01:56:42;100809.53;;;13.83;70.54
48652;BME280;34442;52.362;-1.302;2023-05-22T01:59:22;100807.91;;;13.75;70.80
48652;BME280;34442;52.362;-1.302;2023-05-22T02:01:51;100803.16;;;13.71;69.81
48652;BME280;34442;52.362;-1.302;2023-05-22T02:04:18;100815.63;;;13.65;70.42
48652;BME280;34442;52.362;-1.302;2023-05-22T02:06:46;100810.69;;;13.62;70.59
48652;BME280;34442;52.362;-1.302;2023-05-22T02:09:13;100816.13;;;13.49;71.06
48652;BME280;34442;52.362;-1.302;2023-05-22T02:11:41;100812.75;;;13.60;70.78
48652;BME280;34442;52.362;-1.302;2023-05-22T02:14:06;100819.88;;;13.54;70.94
48652;BME280;34442;52.362;-1.302;2023-05-22T02:16:33;100809.63;;;13.63;70.94
48652;BME280;34442;52.362;-1.302;2023-05-22T02:19:00;100808.31;;;13.72;70.34
48652;BME280;34442;52.362;-1.302;2023-05-22T02:21:32;100799.78;;;13.75;70.26
48652;BME280;34442;52.362;-1.302;2023-05-22T02:23:57;100804.19;;;13.70;70.17
48652;BME280;34442;52.362;-1.302;2023-05-22T02:26:23;100811.06;;;13.65;70.87
48652;BME280;34442;52.362;-1.302;2023-05-22T02:28:48;100802.94;;;13.72;70.59
48652;BME280;34442;52.362;-1.302;2023-05-22T02:31:13;100803.56;;;13.68;70.84
48652;BME280;34442;52.362;-1.302;2023-05-22T02:33:40;100793.41;;;13.63;71.06
48652;BME280;34442;52.362;-1.302;2023-05-22T02:36:06;100798.66;;;13.58;71.02
48652;BME280;34442;52.362;-1.302;2023-05-22T02:38:35;100802.84;;;13.54;71.39
48652;BME280;34442;52.362;-1.302;2023-05-22T02:41:01;100804.06;;;13.58;71.36
48652;BME280;34442;52.362;-1.302;2023-05-22T02:43:26;100809.47;;;13.58;71.30
48652;BME280;34442;52.362;-1.302;2023-05-22T02:45:52;100807.13;;;13.61;71.44
48652;BME280;34442;52.362;-1.302;2023-05-22T02:48:18;100808.16;;;13.67;71.69
48652;BME280;34442;52.362;-1.302;2023-05-22T02:50:43;100804.00;;;13.64;71.54
48652;BME280;34442;52.362;-1.302;2023-05-22T02:53:08;100798.41;;;13.66;71.60
48652;BME280;34442;52.362;-1.302;2023-05-22T02:55:34;100802.34;;;13.63;71.68
48652;BME280;34442;52.362;-1.302;2023-05-22T02:58:01;100797.53;;;13.65;71.75
48652;BME280;34442;52.362;-1.302;2023-05-22T03:00:26;100807.00;;;13.50;72.22
48652;BME280;34442;52.362;-1.302;2023-05-22T03:02:51;100797.69;;;13.46;73.11
48652;BME280;34442;52.362;-1.302;2023-05-22T03:05:17;100793.09;;;13.46;73.19
48652;BME280;34442;52.362;-1.302;2023-05-22T03:07:43;100792.44;;;13.51;72.94
48652;BME280;34442;52.362;-1.302;2023-05-22T03:10:08;100795.34;;;13.49;72.54
48652;BME280;34442;52.362;-1.302;2023-05-22T03:12:34;100787.50;;;13.41;73.41
48652;BME280;34442;52.362;-1.302;2023-05-22T03:14:59;100791.22;;;13.47;73.20
48652;BME280;34442;52.362;-1.302;2023-05-22T03:17:25;100790.97;;;13.55;72.95
48652;BME280;34442;52.362;-1.302;2023-05-22T03:19:50;100788.88;;;13.57;73.15
48652;BME280;34442;52.362;-1.302;2023-05-22T03:22:16;100793.69;;;13.48;73.25
48652;BME280;34442;52.362;-1.302;2023-05-22T03:24:42;100796.88;;;13.38;73.57
48652;BME280;34442;52.362;-1.302;2023-05-22T03:27:08;100802.47;;;13.37;73.88
48652;BME280;34442;52.362;-1.302;2023-05-22T03:29:33;100796.28;;;13.30;74.70
48652;BME280;34442;52.362;-1.302;2023-05-22T03:31:59;100800.66;;;13.24;75.09
48652;BME280;34442;52.362;-1.302;2023-05-22T03:34:24;100796.06;;;13.25;75.01
48652;BME280;34442;52.362;-1.302;2023-05-22T03:36:51;100792.56;;;13.24;75.58
48652;BME280;34442;52.362;-1.302;2023-05-22T03:39:17;100792.97;;;13.28;75.38
48652;BME280;34442;52.362;-1.302;2023-05-22T03:41:42;100791.50;;;13.19;75.77
48652;BME280;34442;52.362;-1.302;2023-05-22T03:44:07;100789.03;;;13.24;75.60
48652;BME280;34442;52.362;-1.302;2023-05-22T03:46:36;100793.22;;;13.13;76.65
48652;BME280;34442;52.362;-1.302;2023-05-22T03:49:01;100793.00;;;13.08;76.30
48652;BME280;34442;52.362;-1.302;2023-05-22T03:51:27;100799.84;;;13.04;76.51
48652;BME280;34442;52.362;-1.302;2023-05-22T03:53:53;100791.38;;;13.00;76.64
48652;BME280;34442;52.362;-1.302;2023-05-22T03:56:18;100793.44;;;12.98;76.95
48652;BME280;34442;52.362;-1.302;2023-05-22T03:58:43;100787.47;;;12.83;77.29
48652;BME280;34442;52.362;-1.302;2023-05-22T04:01:09;100789.13;;;12.90;77.52
48652;BME280;34442;52.362;-1.302;2023-05-22T04:03:38;100781.66;;;12.86;77.40
48652;BME280;34442;52.362;-1.302;2023-05-22T04:06:04;100779.97;;;12.91;76.81
48652;BME280;34442;52.362;-1.302;2023-05-22T04:08:29;100777.47;;;12.97;76.38
48652;BME280;34442;52.362;-1.302;2023-05-22T04:10:55;100783.44;;;13.12;75.54
48652;BME280;34442;52.362;-1.302;2023-05-22T04:13:20;100780.53;;;13.13;75.10
48652;BME280;34442;52.362;-1.302;2023-05-22T04:15:46;100785.34;;;13.05;75.49
48652;BME280;34442;52.362;-1.302;2023-05-22T04:18:12;100778.25;;;13.10;74.97
48652;BME280;34442;52.362;-1.302;2023-05-22T04:20:37;100784.88;;;13.21;74.98
48652;BME280;34442;52.362;-1.302;2023-05-22T04:23:03;100779.06;;;13.18;75.01
48652;BME280;34442;52.362;-1.302;2023-05-22T04:25:28;100773.22;;;13.21;74.52
48652;BME280;34442;52.362;-1.302;2023-05-22T04:27:54;100773.69;;;13.11;74.44
48652;BME280;34442;52.362;-1.302;2023-05-22T04:30:20;100769.50;;;13.15;74.13
48652;BME280;34442;52.362;-1.302;2023-05-22T04:32:46;100774.94;;;13.08;74.38
48652;BME280;34442;52.362;-1.302;2023-05-22T04:35:15;100780.59;;;13.00;74.36
48652;BME280;34442;52.362;-1.302;2023-05-22T04:37:42;100788.84;;;13.12;73.96
48652;BME280;34442;52.362;-1.302;2023-05-22T04:40:10;100788.91;;;12.92;74.61
48652;BME280;34442;52.362;-1.302;2023-05-22T04:42:37;100785.34;;;13.05;74.22
48652;BME280;34442;52.362;-1.302;2023-05-22T04:45:04;100785.72;;;13.15;73.52
48652;BME280;34442;52.362;-1.302;2023-05-22T04:47:30;100793.03;;;13.01;74.10
48652;BME280;34442;52.362;-1.302;2023-05-22T04:49:58;100785.94;;;13.07;74.12
48652;BME280;34442;52.362;-1.302;2023-05-22T04:52:25;100789.03;;;13.17;73.66
48652;BME280;34442;52.362;-1.302;2023-05-22T04:54:50;100784.06;;;13.14;73.65
48652;BME280;34442;52.362;-1.302;2023-05-22T04:57:22;100782.19;;;13.21;73.66
48652;BME280;34442;52.362;-1.302;2023-05-22T04:59:50;100786.94;;;13.19;73.60
48652;BME280;34442;52.362;-1.302;2023-05-22T05:02:16;100788.59;;;13.20;73.90
48652;BME280;34442;52.362;-1.302;2023-05-22T05:04:41;100790.50;;;13.13;74.37
48652;BME280;34442;52.362;-1.302;2023-05-22T05:07:08;100794.44;;;13.17;73.76
48652;BME280;34442;52.362;-1.302;2023-05-22T05:09:33;100795.47;;;13.16;73.69
48652;BME280;34442;52.362;-1.302;2023-05-22T05:11:58;100795.47;;;13.23;74.33
48652;BME280;34442;52.362;-1.302;2023-05-22T05:14:24;100793.13;;;13.33;73.88
48652;BME280;34442;52.362;-1.302;2023-05-22T05:16:50;100801.66;;;13.36;73.63
48652;BME280;34442;52.362;-1.302;2023-05-22T05:19:17;100796.28;;;13.30;73.70
48652;BME280;34442;52.362;-1.302;2023-05-22T05:21:45;100808.09;;;13.35;73.60
48652;BME280;34442;52.362;-1.302;2023-05-22T05:24:11;100803.28;;;13.44;73.21
48652;BME280;34442;52.362;-1.302;2023-05-22T05:26:37;100801.00;;;13.41;73.39
48652;BME280;34442;52.362;-1.302;2023-05-22T05:29:02;100809.91;;;13.48;72.90
48652;BME280;34442;52.362;-1.302;2023-05-22T05:31:28;100808.72;;;13.37;73.84
48652;BME280;34442;52.362;-1.302;2023-05-22T05:33:53;100805.97;;;13.44;73.40
48652;BME280;34442;52.362;-1.302;2023-05-22T05:36:23;100808.59;;;13.57;73.04
48652;BME280;34442;52.362;-1.302;2023-05-22T05:38:49;100819.63;;;13.62;72.85
48652;BME280;34442;52.362;-1.302;2023-05-22T05:41:15;100818.16;;;13.60;73.23
48652;BME280;34442;52.362;-1.302;2023-05-22T05:43:40;100820.63;;;13.61;73.20
48652;BME280;34442;52.362;-1.302;2023-05-22T05:46:05;100828.94;;;13.67;73.50
48652;BME280;34442;52.362;-1.302;2023-05-22T05:48:31;100826.84;;;13.69;73.39
48652;BME280;34442;52.362;-1.302;2023-05-22T05:50:57;100818.25;;;13.78;73.07
48652;BME280;34442;52.362;-1.302;2023-05-22T05:53:22;100826.41;;;13.72;73.36
48652;BME280;34442;52.362;-1.302;2023-05-22T05:55:47;100825.34;;;13.79;73.33
48652;BME280;34442;52.362;-1.302;2023-05-22T05:58:15;100818.88;;;13.80;73.19
48652;BME280;34442;52.362;-1.302;2023-05-22T06:00:41;100817.81;;;13.81;72.65
48652;BME280;34442;52.362;-1.302;2023-05-22T06:03:06;100826.59;;;13.77;72.86
48652;BME280;34442;52.362;-1.302;2023-05-22T06:05:32;100821.84;;;13.72;72.45
48652;BME280;34442;52.362;-1.302;2023-05-22T06:07:57;100833.03;;;13.76;72.32
48652;BME280;34442;52.362;-1.302;2023-05-22T06:10:23;100831.50;;;13.86;71.72
48652;BME280;34442;52.362;-1.302;2023-05-22T06:12:49;100827.16;;;13.85;71.53
48652;BME280;34442;52.362;-1.302;2023-05-22T06:15:14;100828.63;;;13.81;71.41
48652;BME280;34442;52.362;-1.302;2023-05-22T06:17:40;100831.66;;;13.67;71.88
48652;BME280;34442;52.362;-1.302;2023-05-22T06:20:06;100832.66;;;13.65;71.92
48652;BME280;34442;52.362;-1.302;2023-05-22T06:22:32;100829.25;;;13.83;70.99
48652;BME280;34442;52.362;-1.302;2023-05-22T06:24:58;100825.28;;;13.86;70.98
48652;BME280;34442;52.362;-1.302;2023-05-22T06:27:23;100828.56;;;13.95;70.82
48652;BME280;34442;52.362;-1.302;2023-05-22T06:29:51;100834.31;;;14.05;70.53
48652;BME280;34442;52.362;-1.302;2023-05-22T06:32:20;100835.53;;;14.09;69.84
48652;BME280;34442;52.362;-1.302;2023-05-22T06:34:46;100832.75;;;14.22;69.59
48652;BME280;34442;52.362;-1.302;2023-05-22T06:37:12;100837.56;;;14.20;69.91
48652;BME280;34442;52.362;-1.302;2023-05-22T06:39:38;100846.22;;;14.29;69.77
48652;BME280;34442;52.362;-1.302;2023-05-22T06:42:04;100847.16;;;14.16;70.38
48652;BME280;34442;52.362;-1.302;2023-05-22T06:44:30;100847.72;;;13.86;71.07
48652;BME280;34442;52.362;-1.302;2023-05-22T06:46:57;100843.16;;;14.19;69.87
48652;BME280;34442;52.362;-1.302;2023-05-22T06:49:22;100857.44;;;14.32;69.47
48652;BME280;34442;52.362;-1.302;2023-05-22T06:51:47;100852.13;;;14.44;69.28
48652;BME280;34442;52.362;-1.302;2023-05-22T06:54:13;100850.84;;;14.47;68.69
48652;BME280;34442;52.362;-1.302;2023-05-22T06:56:39;100851.88;;;14.52;68.37
48652;BME280;34442;52.362;-1.302;2023-05-22T06:59:05;100859.22;;;14.70;67.97
48652;BME280;34442;52.362;-1.302;2023-05-22T07:01:30;100852.25;;;14.81;67.50
48652;BME280;34442;52.362;-1.302;2023-05-22T07:03:57;100851.31;;;14.69;68.06
48652;BME280;34442;52.362;-1.302;2023-05-22T07:06:26;100855.34;;;14.84;67.46
48652;BME280;34442;52.362;-1.302;2023-05-22T07:08:52;100863.75;;;14.76;67.48
48652;BME280;34442;52.362;-1.302;2023-05-22T07:11:17;100854.13;;;14.80;67.34
48652;BME280;34442;52.362;-1.302;2023-05-22T07:13:42;100855.34;;;14.84;67.01
48652;BME280;34442;52.362;-1.302;2023-05-22T07:16:08;100854.75;;;14.82;66.53
48652;BME280;34442;52.362;-1.302;2023-05-22T07:18:33;100856.59;;;15.07;65.65
48652;BME280;34442;52.362;-1.302;2023-05-22T07:20:59;100862.00;;;15.07;66.05
48652;BME280;34442;52.362;-1.302;2023-05-22T07:23:24;100862.25;;;15.24;66.04
48652;BME280;34442;52.362;-1.302;2023-05-22T07:25:50;100872.31;;;15.17;64.93
48652;BME280;34442;52.362;-1.302;2023-05-22T07:28:15;100860.34;;;15.24;65.45
48652;BME280;34442;52.362;-1.302;2023-05-22T07:30:41;100858.16;;;15.33;64.94
48652;BME280;34442;52.362;-1.302;2023-05-22T07:33:06;100855.47;;;15.33;64.02
48652;BME280;34442;52.362;-1.302;2023-05-22T07:35:32;100864.72;;;15.44;65.40
48652;BME280;34442;52.362;-1.302;2023-05-22T07:37:58;100869.81;;;15.33;64.84
48652;BME280;34442;52.362;-1.302;2023-05-22T07:40:24;100873.88;;;15.06;65.89
48652;BME280;34442;52.362;-1.302;2023-05-22T07:42:49;100883.19;;;15.10;65.70
48652;BME280;34442;52.362;-1.302;2023-05-22T07:45:15;100881.28;;;15.35;65.26
48652;BME280;34442;52.362;-1.302;2023-05-22T07:47:40;100885.91;;;15.47;65.08
48652;BME280;34442;52.362;-1.302;2023-05-22T07:50:06;100886.09;;;15.52;65.05
48652;BME280;34442;52.362;-1.302;2023-05-22T07:52:32;100886.53;;;15.67;64.74
48652;BME280;34442;52.362;-1.302;2023-05-22T07:54:58;100880.28;;;15.67;64.69
48652;BME280;34442;52.362;-1.302;2023-05-22T07:57:23;100886.03;;;15.77;64.62
48652;BME280;34442;52.362;-1.302;2023-05-22T07:59:49;100890.31;;;15.84;64.52
48652;BME280;34442;52.362;-1.302;2023-05-22T08:02:16;100893.16;;;15.90;64.00
48652;BME280;34442;52.362;-1.302;2023-05-22T08:04:42;100899.06;;;16.28;63.67
48652;BME280;34442;52.362;-1.302;2023-05-22T08:07:11;100893.75;;;16.33;62.57
48652;BME280;34442;52.362;-1.302;2023-05-22T08:09:37;100897.19;;;16.41;63.75
48652;BME280;34442;52.362;-1.302;2023-05-22T08:12:02;100898.41;;;16.45;63.59
48652;BME280;34442;52.362;-1.302;2023-05-22T08:14:28;100901.84;;;16.52;64.59
48652;BME280;34442;52.362;-1.302;2023-05-22T08:16:54;100897.50;;;16.62;64.08
48652;BME280;34442;52.362;-1.302;2023-05-22T08:19:21;100908.94;;;16.65;63.63
48652;BME280;34442;52.362;-1.302;2023-05-22T08:21:46;100902.78;;;16.57;63.92
48652;BME280;34442;52.362;-1.302;2023-05-22T08:24:11;100910.94;;;16.69;63.06
48652;BME280;34442;52.362;-1.302;2023-05-22T08:26:37;100906.03;;;16.78;62.97
48652;BME280;34442;52.362;-1.302;2023-05-22T08:29:03;100913.38;;;16.89;63.68
48652;BME280;34442;52.362;-1.302;2023-05-22T08:31:29;100918.69;;;17.07;63.45
48652;BME280;34442;52.362;-1.302;2023-05-22T08:33:54;100918.94;;;17.06;62.79
48652;BME280;34442;52.362;-1.302;2023-05-22T08:36:27;100920.47;;;17.02;63.35
48652;BME280;34442;52.362;-1.302;2023-05-22T08:38:54;100919.88;;;16.88;63.07
48652;BME280;34442;52.362;-1.302;2023-05-22T08:41:20;100922.94;;;17.15;62.91
48652;BME280;34442;52.362;-1.302;2023-05-22T08:43:46;100911.47;;;17.36;62.74
48652;BME280;34442;52.362;-1.302;2023-05-22T08:46:11;100911.44;;;17.48;62.27
48652;BME280;34442;52.362;-1.302;2023-05-22T08:48:40;100909.41;;;17.67;62.45
48652;BME280;34442;52.362;-1.302;2023-05-22T08:51:06;100914.53;;;17.40;62.96
48652;BME280;34442;52.362;-1.302;2023-05-22T08:53:34;100915.19;;;17.71;61.92
48652;BME280;34442;52.362;-1.302;2023-05-22T08:56:01;100907.50;;;17.68;62.58
48652;BME280;34442;52.362;-1.302;2023-05-22T08:58:27;100910.94;;;17.63;62.04
48652;BME280;34442;52.362;-1.302;2023-05-22T09:00:53;100914.09;;;17.72;62.03
48652;BME280;34442;52.362;-1.302;2023-05-22T09:03:20;100915.03;;;17.89;61.85
48652;BME280;34442;52.362;-1.302;2023-05-22T09:05:47;100916.25;;;18.10;60.87
48652;BME280;34442;52.362;-1.302;2023-05-22T09:08:13;100914.50;;;17.75;62.30
48652;BME280;34442;52.362;-1.302;2023-05-22T09:10:39;100909.88;;;17.52;63.37
48652;BME280;34442;52.362;-1.302;2023-05-22T09:13:06;100923.53;;;17.29;63.99
48652;BME280;34442;52.362;-1.302;2023-05-22T09:15:34;100919.38;;;17.38;64.08
48652;BME280;34442;52.362;-1.302;2023-05-22T09:18:01;100915.25;;;17.35;64.64
48652;BME280;34442;52.362;-1.302;2023-05-22T09:20:27;100909.47;;;17.20;65.08
48652;BME280;34442;52.362;-1.302;2023-05-22T09:22:52;100917.84;;;17.30;63.91
48652;BME280;34442;52.362;-1.302;2023-05-22T09:25:19;100925.53;;;16.86;64.09
48652;BME280;34442;52.362;-1.302;2023-05-22T09:27:46;100924.59;;;17.16;64.03
48652;BME280;34442;52.362;-1.302;2023-05-22T09:30:16;100914.38;;;17.82;61.29
48652;BME280;34442;52.362;-1.302;2023-05-22T09:32:42;100921.41;;;18.23;60.67
48652;BME280;34442;52.362;-1.302;2023-05-22T09:35:07;100913.25;;;18.23;60.27
48652;BME280;34442;52.362;-1.302;2023-05-22T09:37:34;100927.13;;;18.10;60.21
48652;BME280;34442;52.362;-1.302;2023-05-22T09:40:10;100915.41;;;18.09;58.04
48652;BME280;34442;52.362;-1.302;2023-05-22T09:42:38;100919.91;;;18.16;59.71
48652;BME280;34442;52.362;-1.302;2023-05-22T09:45:07;100915.34;;;18.04;58.76
48652;BME280;34442;52.362;-1.302;2023-05-22T09:47:33;100917.28;;;18.21;59.18
48652;BME280;34442;52.362;-1.302;2023-05-22T09:50:02;100924.22;;;18.28;59.46
48652;BME280;34442;52.362;-1.302;2023-05-22T09:52:32;100919.63;;;18.46;58.65
48652;BME280;34442;52.362;-1.302;2023-05-22T09:55:05;100920.19;;;18.76;58.09
48652;BME280;34442;52.362;-1.302;2023-05-22T09:57:32;100911.28;;;18.81;58.04
48652;BME280;34442;52.362;-1.302;2023-05-22T10:00:04;100910.03;;;18.89;58.11
48652;BME280;34442;52.362;-1.302;2023-05-22T10:02:37;100915.97;;;19.02;58.09
48652;BME280;34442;52.362;-1.302;2023-05-22T10:05:05;100906.78;;;18.92;57.99
48652;BME280;34442;52.362;-1.302;2023-05-22T10:07:48;100902.34;;;18.86;55.00
48652;BME280;34442;52.362;-1.302;2023-05-22T10:10:17;100904.53;;;19.22;57.14
48652;BME280;34442;52.362;-1.302;2023-05-22T10:12:51;100922.84;;;19.27;55.25
48652;BME280;34442;52.362;-1.302;2023-05-22T10:15:20;100906.88;;;19.36;56.66
48652;BME280;34442;52.362;-1.302;2023-05-22T10:17:46;100899.38;;;19.65;56.25
48652;BME280;34442;52.362;-1.302;2023-05-22T10:20:11;100905.50;;;19.55;56.69
48652;BME280;34442;52.362;-1.302;2023-05-22T10:22:39;100912.06;;;19.76;56.54
48652;BME280;34442;52.362;-1.302;2023-05-22T10:25:06;100915.72;;;19.87;56.28
48652;BME280;34442;52.362;-1.302;2023-05-22T10:27:32;100910.22;;;19.81;56.04
48652;BME280;34442;52.362;-1.302;2023-05-22T10:30:05;100915.91;;;19.58;51.84
48652;BME280;34442;52.362;-1.302;2023-05-22T10:32:41;100914.66;;;19.66;53.90
48652;BME280;34442;52.362;-1.302;2023-05-22T10:35:19;100905.41;;;19.89;55.43
48652;BME280;34442;52.362;-1.302;2023-05-22T10:40:46;100910.31;;;20.14;55.52
48652;BME280;34442;52.362;-1.302;2023-05-22T10:43:12;100910.88;;;20.43;55.12
48652;BME280;34442;52.362;-1.302;2023-05-22T10:45:38;100922.38;;;20.77;54.34
48652;BME280;34442;52.362;-1.302;2023-05-22T10:48:10;100915.75;;;20.41;50.03
48652;BME280;34442;52.362;-1.302;2023-05-22T10:50:41;100910.44;;;20.83;53.87
48652;BME280;34442;52.362;-1.302;2023-05-22T10:53:24;100910.97;;;20.85;51.65
48652;BME280;34442;52.362;-1.302;2023-05-22T10:58:17;100906.28;;;21.18;52.34
48652;BME280;34442;52.362;-1.302;2023-05-22T11:00:45;100912.81;;;21.12;51.90
48652;BME280;34442;52.362;-1.302;2023-05-22T11:03:11;100903.66;;;20.91;52.77
48652;BME280;34442;52.362;-1.302;2023-05-22T11:05:37;100907.53;;;20.63;50.56
48652;BME280;34442;52.362;-1.302;2023-05-22T11:08:33;100900.19;;;21.05;48.79
48652;BME280;34442;52.362;-1.302;2023-05-22T11:10:55;100901.66;;;20.81;51.99
48652;BME280;34442;52.362;-1.302;2023-05-22T11:13:26;100902.78;;;20.53;51.17
48652;BME280;34442;52.362;-1.302;2023-05-22T11:15:55;100905.03;;;20.61;51.96
48652;BME280;34442;52.362;-1.302;2023-05-22T11:18:22;100892.66;;;19.72;52.23
48652;BME280;34442;52.362;-1.302;2023-05-22T11:20:48;100895.31;;;19.89;54.54
48652;BME280;34442;52.362;-1.302;2023-05-22T11:23:16;100884.84;;;19.81;53.36
48652;BME280;34442;52.362;-1.302;2023-05-22T11:25:42;100887.56;;;19.59;54.05
48652;BME280;34442;52.362;-1.302;2023-05-22T11:28:08;100885.47;;;19.66;53.01
48652;BME280;34442;52.362;-1.302;2023-05-22T11:30:35;100878.16;;;19.94;52.04
48652;BME280;34442;52.362;-1.302;2023-05-22T11:33:02;100886.56;;;20.14;52.41
48652;BME280;34442;52.362;-1.302;2023-05-22T11:35:27;100875.38;;;19.89;52.49
48652;BME280;34442;52.362;-1.302;2023-05-22T11:37:54;100879.19;;;19.88;52.48
48652;BME280;34442;52.362;-1.302;2023-05-22T11:40:21;100871.78;;;20.10;52.98
48652;BME280;34442;52.362;-1.302;2023-05-22T11:42:48;100874.03;;;20.18;52.50
48652;BME280;34442;52.362;-1.302;2023-05-22T11:45:14;100863.94;;;20.19;52.23
48652;BME280;34442;52.362;-1.302;2023-05-22T11:47:41;100872.00;;;20.36;52.17
48652;BME280;34442;52.362;-1.302;2023-05-22T11:50:08;100878.38;;;20.41;51.99
48652;BME280;34442;52.362;-1.302;2023-05-22T11:52:35;100871.63;;;19.95;51.54
48652;BME280;34442;52.362;-1.302;2023-05-22T11:55:03;100876.50;;;20.20;51.28
48652;BME280;34442;52.362;-1.302;2023-05-22T11:57:29;100875.34;;;20.11;51.49
48652;BME280;34442;52.362;-1.302;2023-05-22T11:59:56;100874.81;;;20.14;51.12
48652;BME280;34442;52.362;-1.302;2023-05-22T12:02:22;100883.94;;;20.24;50.86
48652;BME280;34442;52.362;-1.302;2023-05-22T12:04:53;100887.69;;;20.45;49.17
48652;BME280;34442;52.362;-1.302;2023-05-22T12:07:18;100883.72;;;20.31;50.39
48652;BME280;34442;52.362;-1.302;2023-05-22T12:09:44;100875.69;;;20.19;50.33
48652;BME280;34442;52.362;-1.302;2023-05-22T12:12:09;100869.88;;;20.11;49.87
48652;BME280;34442;52.362;-1.302;2023-05-22T12:14:35;100872.56;;;20.05;49.51
48652;BME280;34442;52.362;-1.302;2023-05-22T12:17:01;100866.94;;;20.17;48.95
48652;BME280;34442;52.362;-1.302;2023-05-22T12:19:28;100861.09;;;19.81;48.43
48652;BME280;34442;52.362;-1.302;2023-05-22T12:21:54;100865.81;;;19.64;47.73
48652;BME280;34442;52.362;-1.302;2023-05-22T12:24:20;100864.47;;;19.67;48.29
48652;BME280;34442;52.362;-1.302;2023-05-22T12:26:51;100865.78;;;19.86;47.14
48652;BME280;34442;52.362;-1.302;2023-05-22T12:29:17;100859.78;;;20.11;46.72
48652;BME280;34442;52.362;-1.302;2023-05-22T12:31:43;100858.88;;;20.00;45.96
48652;BME280;34442;52.362;-1.302;2023-05-22T12:34:11;100865.84;;;20.45;44.74
48652;BME280;34442;52.362;-1.302;2023-05-22T12:36:37;100858.19;;;20.79;44.41
48652;BME280;34442;52.362;-1.302;2023-05-22T12:39:06;100855.84;;;20.56;43.02
48652;BME280;34442;52.362;-1.302;2023-05-22T12:41:33;100862.16;;;20.02;45.01
48652;BME280;34442;52.362;-1.302;2023-05-22T12:43:58;100848.19;;;19.99;44.76
48652;BME280;34442;52.362;-1.302;2023-05-22T12:46:26;100858.56;;;19.97;45.17
48652;BME280;34442;52.362;-1.302;2023-05-22T12:48:51;100848.50;;;19.75;45.19
48652;BME280;34442;52.362;-1.302;2023-05-22T12:51:17;100840.22;;;19.92;45.01
48652;BME280;34442;52.362;-1.302;2023-05-22T12:53:42;100846.22;;;19.94;44.62
48652;BME280;34442;52.362;-1.302;2023-05-22T12:56:08;100843.66;;;19.82;44.56